sensor_id;sensor_type;location;lat;lon;timestamp;temperature;humidity
56184;DHT22;42086;53.170;6.980;2022-07-05T00:01:55;12.60;99.90
56184;DHT22;42086;53.170;6.980;2022-07-05T00:04:21;12.60;99.90
56184;DHT22;42086;53.170;6.980;2022-07-05T00:06:46;12.60;99.90
56184;DHT22;42086;53.170;6.980;2022-07-05T00:09:30;12.60;99.90
56184;DHT22;42086;53.170;6.980;2022-07-05T00:11:56;12.60;99.90
56184;DHT22;42086;53.170;6.980;2022-07-05T00:14:22;12.60;99.90
56184;DHT22;42086;53.170;6.980;2022-07-05T00:16:48;12.80;99.90
56184;DHT22;42086;53.170;6.980;2022-07-05T00:19:15;12.50;99.90
56184;DHT22;42086;53.170;6.980;2022-07-05T00:21:40;12.50;99.90
56184;DHT22;42086;53.170;6.980;2022-07-05T00:24:06;12.40;99.90
56184;DHT22;42086;53.170;6.980;2022-07-05T00:26:32;12.40;99.90
56184;DHT22;42086;53.170;6.980;2022-07-05T00:28:58;12.40;99.90
56184;DHT22;42086;53.170;6.980;2022-07-05T00:31:23;12.40;99.90
56184;DHT22;42086;53.170;6.980;2022-07-05T00:33:49;12.40;99.90
56184;DHT22;42086;53.170;6.980;2022-07-05T00:36:15;12.20;99.90
56184;DHT22;42086;53.170;6.980;2022-07-05T00:38:40;12.10;99.90
56184;DHT22;42086;53.170;6.980;2022-07-05T00:41:06;12.00;99.90
56184;DHT22;42086;53.170;6.980;2022-07-05T00:43:32;12.00;99.90
56184;DHT22;42086;53.170;6.980;2022-07-05T00:45:58;12.00;99.90
56184;DHT22;42086;53.170;6.980;2022-07-05T00:48:23;12.00;99.90
56184;DHT22;42086;53.170;6.980;2022-07-05T00:50:50;12.00;99.90
56184;DHT22;42086;53.170;6.980;2022-07-05T00:53:16;11.90;99.90
56184;DHT22;42086;53.170;6.980;2022-07-05T00:55:44;11.90;99.90
56184;DHT22;42086;53.170;6.980;2022-07-05T00:58:10;11.90;99.90
56184;DHT22;42086;53.170;6.980;2022-07-05T01:00:37;11.90;99.90
56184;DHT22;42086;53.170;6.980;2022-07-05T01:03:03;11.80;99.90
56184;DHT22;42086;53.170;6.980;2022-07-05T01:05:29;11.80;99.90
56184;DHT22;42086;53.170;6.980;2022-07-05T01:07:59;11.80;99.90
56184;DHT22;42086;53.170;6.980;2022-07-05T01:10:27;11.70;99.90
56184;DHT22;42086;53.170;6.980;2022-07-05T01:12:53;11.80;99.90
56184;DHT22;42086;53.170;6.980;2022-07-05T01:15:21;11.70;99.90
56184;DHT22;42086;53.170;6.980;2022-07-05T01:17:47;11.60;99.90
56184;DHT22;42086;53.170;6.980;2022-07-05T01:20:13;11.60;99.90
56184;DHT22;42086;53.170;6.980;2022-07-05T01:22:56;11.60;99.90
56184;DHT22;42086;53.170;6.980;2022-07-05T01:25:24;11.60;99.90
56184;DHT22;42086;53.170;6.980;2022-07-05T01:27:51;11.60;99.90
56184;DHT22;42086;53.170;6.980;2022-07-05T01:30:17;11.70;99.90
56184;DHT22;42086;53.170;6.980;2022-07-05T01:32:44;11.70;99.90
56184;DHT22;42086;53.170;6.980;2022-07-05T01:35:10;11.60;99.90
56184;DHT22;42086;53.170;6.980;2022-07-05T01:37:37;11.60;99.90
56184;DHT22;42086;53.170;6.980;2022-07-05T01:40:04;11.50;99.90
56184;DHT22;42086;53.170;6.980;2022-07-05T01:42:30;11.40;99.90
56184;DHT22;42086;53.170;6.980;2022-07-05T01:44:56;11.30;99.90
56184;DHT22;42086;53.170;6.980;2022-07-05T01:47:22;11.30;99.90
56184;DHT22;42086;53.170;6.980;2022-07-05T01:49:53;11.30;99.90
56184;DHT22;42086;53.170;6.980;2022-07-05T01:52:21;11.40;99.90
56184;DHT22;42086;53.170;6.980;2022-07-05T01:54:48;11.30;99.90
56184;DHT22;42086;53.170;6.980;2022-07-05T01:57:13;11.40;99.90
56184;DHT22;42086;53.170;6.980;2022-07-05T01:59:39;11.30;99.90
56184;DHT22;42086;53.170;6.980;2022-07-05T02:02:07;11.30;99.90
56184;DHT22;42086;53.170;6.980;2022-07-05T02:04:34;11.50;99.90
56184;DHT22;42086;53.170;6.980;2022-07-05T02:07:04;11.10;99.90
56184;DHT22;42086;53.170;6.980;2022-07-05T02:09:30;11.00;99.90
56184;DHT22;42086;53.170;6.980;2022-07-05T02:11:56;11.00;99.90
56184;DHT22;42086;53.170;6.980;2022-07-05T02:14:21;11.10;99.90
56184;DHT22;42086;53.170;6.980;2022-07-05T02:16:47;11.10;99.90
56184;DHT22;42086;53.170;6.980;2022-07-05T02:19:13;11.20;99.90
56184;DHT22;42086;53.170;6.980;2022-07-05T02:21:39;11.30;99.90
56184;DHT22;42086;53.170;6.980;2022-07-05T02:24:06;11.20;99.90
56184;DHT22;42086;53.170;6.980;2022-07-05T02:26:32;11.20;99.90
56184;DHT22;42086;53.170;6.980;2022-07-05T02:28:58;11.10;99.90
56184;DHT22;42086;53.170;6.980;2022-07-05T02:31:24;11.10;99.90
56184;DHT22;42086;53.170;6.980;2022-07-05T02:33:49;11.10;99.90
56184;DHT22;42086;53.170;6.980;2022-07-05T02:36:15;11.10;99.90
56184;DHT22;42086;53.170;6.980;2022-07-05T02:38:41;11.10;99.90
56184;DHT22;42086;53.170;6.980;2022-07-05T02:41:08;11.10;99.90
56184;DHT22;42086;53.170;6.980;2022-07-05T02:43:34;11.10;99.90
56184;DHT22;42086;53.170;6.980;2022-07-05T02:46:00;11.10;99.90
56184;DHT22;42086;53.170;6.980;2022-07-05T02:48:26;11.10;99.90
56184;DHT22;42086;53.170;6.980;2022-07-05T02:50:52;11.20;99.90
56184;DHT22;42086;53.170;6.980;2022-07-05T02:53:17;11.20;99.90
56184;DHT22;42086;53.170;6.980;2022-07-05T02:55:43;11.20;99.90
56184;DHT22;42086;53.170;6.980;2022-07-05T02:58:09;11.00;99.90
56184;DHT22;42086;53.170;6.980;2022-07-05T03:00:35;10.90;99.90
56184;DHT22;42086;53.170;6.980;2022-07-05T03:03:01;10.90;99.90
56184;DHT22;42086;53.170;6.980;2022-07-05T03:05:27;10.90;99.90
56184;DHT22;42086;53.170;6.980;2022-07-05T03:07:53;10.90;99.90
56184;DHT22;42086;53.170;6.980;2022-07-05T03:10:19;10.90;99.90
56184;DHT22;42086;53.170;6.980;2022-07-05T03:12:44;10.90;99.90
56184;DHT22;42086;53.170;6.980;2022-07-05T03:15:10;10.90;99.90
56184;DHT22;42086;53.170;6.980;2022-07-05T03:17:36;10.80;99.90
56184;DHT22;42086;53.170;6.980;2022-07-05T03:20:02;10.80;99.90
56184;DHT22;42086;53.170;6.980;2022-07-05T03:22:28;10.80;99.90
56184;DHT22;42086;53.170;6.980;2022-07-05T03:24:53;10.80;99.90
56184;DHT22;42086;53.170;6.980;2022-07-05T03:27:19;11.00;99.90
56184;DHT22;42086;53.170;6.980;2022-07-05T03:29:45;10.80;99.90
56184;DHT22;42086;53.170;6.980;2022-07-05T03:32:10;10.70;99.90
56184;DHT22;42086;53.170;6.980;2022-07-05T03:34:36;10.70;99.90
56184;DHT22;42086;53.170;6.980;2022-07-05T03:37:04;10.70;99.90
56184;DHT22;42086;53.170;6.980;2022-07-05T03:39:29;10.60;99.90
56184;DHT22;42086;53.170;6.980;2022-07-05T03:41:55;10.70;99.90
56184;DHT22;42086;53.170;6.980;2022-07-05T03:44:21;10.80;99.90
56184;DHT22;42086;53.170;6.980;2022-07-05T03:46:47;10.80;99.90
56184;DHT22;42086;53.170;6.980;2022-07-05T03:49:12;10.90;99.90
56184;DHT22;42086;53.170;6.980;2022-07-05T03:51:38;10.90;99.90
56184;DHT22;42086;53.170;6.980;2022-07-05T03:54:04;10.90;99.90
56184;DHT22;42086;53.170;6.980;2022-07-05T03:56:29;10.90;99.90
56184;DHT22;42086;53.170;6.980;2022-07-05T03:58:55;10.90;99.90
56184;DHT22;42086;53.170;6.980;2022-07-05T04:01:21;11.00;99.90
56184;DHT22;42086;53.170;6.980;2022-07-05T04:03:47;11.00;99.90
56184;DHT22;42086;53.170;6.980;2022-07-05T04:06:13;11.00;99.90
56184;DHT22;42086;53.170;6.980;2022-07-05T04:08:39;11.00;99.90
56184;DHT22;42086;53.170;6.980;2022-07-05T04:11:05;11.00;99.90
56184;DHT22;42086;53.170;6.980;2022-07-05T04:13:31;11.00;99.90
56184;DHT22;42086;53.170;6.980;2022-07-05T04:15:57;11.10;99.90
56184;DHT22;42086;53.170;6.980;2022-07-05T04:18:23;11.20;99.90
56184;DHT22;42086;53.170;6.980;2022-07-05T04:20:48;11.20;99.90
56184;DHT22;42086;53.170;6.980;2022-07-05T04:23:14;11.40;99.90
56184;DHT22;42086;53.170;6.980;2022-07-05T04:25:40;11.30;99.90
56184;DHT22;42086;53.170;6.980;2022-07-05T04:28:06;11.40;99.90
56184;DHT22;42086;53.170;6.980;2022-07-05T04:30:31;11.50;99.90
56184;DHT22;42086;53.170;6.980;2022-07-05T04:32:57;11.50;99.90
56184;DHT22;42086;53.170;6.980;2022-07-05T04:35:23;11.60;99.90
56184;DHT22;42086;53.170;6.980;2022-07-05T04:37:49;11.70;99.90
56184;DHT22;42086;53.170;6.980;2022-07-05T04:40:15;11.70;99.90
56184;DHT22;42086;53.170;6.980;2022-07-05T04:42:42;11.80;99.90
56184;DHT22;42086;53.170;6.980;2022-07-05T04:45:08;11.90;99.90
56184;DHT22;42086;53.170;6.980;2022-07-05T04:47:34;12.00;99.90
56184;DHT22;42086;53.170;6.980;2022-07-05T04:50:00;12.00;99.90
56184;DHT22;42086;53.170;6.980;2022-07-05T04:52:26;12.10;99.90
56184;DHT22;42086;53.170;6.980;2022-07-05T04:54:52;12.20;99.90
56184;DHT22;42086;53.170;6.980;2022-07-05T04:57:18;12.30;99.90
56184;DHT22;42086;53.170;6.980;2022-07-05T04:59:44;12.40;99.90
56184;DHT22;42086;53.170;6.980;2022-07-05T05:02:10;12.50;99.90
56184;DHT22;42086;53.170;6.980;2022-07-05T05:04:36;12.60;99.90
56184;DHT22;42086;53.170;6.980;2022-07-05T05:07:01;12.80;99.90
56184;DHT22;42086;53.170;6.980;2022-07-05T05:09:27;12.80;99.90
56184;DHT22;42086;53.170;6.980;2022-07-05T05:11:53;12.90;99.90
56184;DHT22;42086;53.170;6.980;2022-07-05T05:14:18;13.00;99.90
56184;DHT22;42086;53.170;6.980;2022-07-05T05:16:44;13.10;99.90
56184;DHT22;42086;53.170;6.980;2022-07-05T05:19:10;13.20;99.90
56184;DHT22;42086;53.170;6.980;2022-07-05T05:21:36;13.30;99.90
56184;DHT22;42086;53.170;6.980;2022-07-05T05:24:02;13.40;99.90
56184;DHT22;42086;53.170;6.980;2022-07-05T05:26:27;13.60;99.90
56184;DHT22;42086;53.170;6.980;2022-07-05T05:28:53;13.60;99.90
56184;DHT22;42086;53.170;6.980;2022-07-05T05:31:19;13.80;99.90
56184;DHT22;42086;53.170;6.980;2022-07-05T05:33:45;13.90;99.90
56184;DHT22;42086;53.170;6.980;2022-07-05T05:36:11;14.00;99.90
56184;DHT22;42086;53.170;6.980;2022-07-05T05:38:37;14.20;99.90
56184;DHT22;42086;53.170;6.980;2022-07-05T05:41:03;14.30;99.90
56184;DHT22;42086;53.170;6.980;2022-07-05T05:43:29;14.50;99.90
56184;DHT22;42086;53.170;6.980;2022-07-05T05:45:54;14.60;99.90
56184;DHT22;42086;53.170;6.980;2022-07-05T05:48:20;14.80;99.90
56184;DHT22;42086;53.170;6.980;2022-07-05T05:50:46;15.00;99.90
56184;DHT22;42086;53.170;6.980;2022-07-05T05:53:13;15.20;99.90
56184;DHT22;42086;53.170;6.980;2022-07-05T05:55:39;15.30;99.90
56184;DHT22;42086;53.170;6.980;2022-07-05T05:58:23;15.40;99.90
56184;DHT22;42086;53.170;6.980;2022-07-05T06:00:52;15.60;99.90
56184;DHT22;42086;53.170;6.980;2022-07-05T06:03:23;15.80;99.90
56184;DHT22;42086;53.170;6.980;2022-07-05T06:05:49;15.90;99.90
56184;DHT22;42086;53.170;6.980;2022-07-05T06:08:15;16.10;99.90
56184;DHT22;42086;53.170;6.980;2022-07-05T06:10:41;16.20;99.90
56184;DHT22;42086;53.170;6.980;2022-07-05T06:13:10;16.30;99.90
56184;DHT22;42086;53.170;6.980;2022-07-05T06:15:36;16.40;99.90
56184;DHT22;42086;53.170;6.980;2022-07-05T06:18:03;16.50;99.90
56184;DHT22;42086;53.170;6.980;2022-07-05T06:20:31;16.50;99.90
56184;DHT22;42086;53.170;6.980;2022-07-05T06:22:57;16.60;99.90
56184;DHT22;42086;53.170;6.980;2022-07-05T06:25:23;16.70;99.90
56184;DHT22;42086;53.170;6.980;2022-07-05T06:27:52;16.80;99.90
56184;DHT22;42086;53.170;6.980;2022-07-05T06:30:20;16.90;99.90
56184;DHT22;42086;53.170;6.980;2022-07-05T06:32:47;17.00;99.90
56184;DHT22;42086;53.170;6.980;2022-07-05T06:35:13;17.00;99.90
56184;DHT22;42086;53.170;6.980;2022-07-05T06:42:53;17.00;99.90
56184;DHT22;42086;53.170;6.980;2022-07-05T06:45:19;17.10;99.90
56184;DHT22;42086;53.170;6.980;2022-07-05T06:47:47;17.20;99.90
56184;DHT22;42086;53.170;6.980;2022-07-05T06:50:18;17.30;99.90
56184;DHT22;42086;53.170;6.980;2022-07-05T06:52:44;17.30;99.90
56184;DHT22;42086;53.170;6.980;2022-07-05T06:55:10;17.40;99.90
56184;DHT22;42086;53.170;6.980;2022-07-05T06:57:35;17.50;99.90
56184;DHT22;42086;53.170;6.980;2022-07-05T07:00:01;17.70;99.90
56184;DHT22;42086;53.170;6.980;2022-07-05T07:02:28;17.90;99.90
56184;DHT22;42086;53.170;6.980;2022-07-05T07:04:53;18.00;99.90
56184;DHT22;42086;53.170;6.980;2022-07-05T07:07:19;18.00;99.90
56184;DHT22;42086;53.170;6.980;2022-07-05T07:10:03;18.00;99.90
56184;DHT22;42086;53.170;6.980;2022-07-05T07:12:29;18.10;99.90
56184;DHT22;42086;53.170;6.980;2022-07-05T07:14:56;18.10;99.90
56184;DHT22;42086;53.170;6.980;2022-07-05T07:17:22;18.20;99.90
56184;DHT22;42086;53.170;6.980;2022-07-05T07:19:48;18.40;99.90
56184;DHT22;42086;53.170;6.980;2022-07-05T07:22:14;18.40;99.90
56184;DHT22;42086;53.170;6.980;2022-07-05T07:24:39;18.40;99.90
56184;DHT22;42086;53.170;6.980;2022-07-05T07:27:05;18.50;99.90
56184;DHT22;42086;53.170;6.980;2022-07-05T07:29:38;18.50;99.90
56184;DHT22;42086;53.170;6.980;2022-07-05T07:32:05;18.50;99.90
56184;DHT22;42086;53.170;6.980;2022-07-05T07:34:32;18.60;99.90
56184;DHT22;42086;53.170;6.980;2022-07-05T07:36:58;18.70;99.90
56184;DHT22;42086;53.170;6.980;2022-07-05T07:39:25;18.60;99.90
56184;DHT22;42086;53.170;6.980;2022-07-05T07:41:52;18.80;99.90
56184;DHT22;42086;53.170;6.980;2022-07-05T07:44:18;18.90;99.90
56184;DHT22;42086;53.170;6.980;2022-07-05T07:46:44;18.90;99.90
56184;DHT22;42086;53.170;6.980;2022-07-05T07:49:10;19.10;99.90
56184;DHT22;42086;53.170;6.980;2022-07-05T07:51:37;19.30;99.90
56184;DHT22;42086;53.170;6.980;2022-07-05T07:54:02;19.30;99.90
56184;DHT22;42086;53.170;6.980;2022-07-05T07:56:29;19.20;99.90
56184;DHT22;42086;53.170;6.980;2022-07-05T07:58:54;19.20;99.90
56184;DHT22;42086;53.170;6.980;2022-07-05T08:01:20;19.20;99.90
56184;DHT22;42086;53.170;6.980;2022-07-05T08:03:46;19.40;99.90
56184;DHT22;42086;53.170;6.980;2022-07-05T08:06:12;19.40;99.90
56184;DHT22;42086;53.170;6.980;2022-07-05T08:08:40;19.30;99.90
56184;DHT22;42086;53.170;6.980;2022-07-05T08:11:09;19.40;99.90
56184;DHT22;42086;53.170;6.980;2022-07-05T08:13:35;19.70;99.90
56184;DHT22;42086;53.170;6.980;2022-07-05T08:16:02;19.80;99.90
56184;DHT22;42086;53.170;6.980;2022-07-05T08:18:28;20.00;99.90
56184;DHT22;42086;53.170;6.980;2022-07-05T08:21:13;20.20;99.90
56184;DHT22;42086;53.170;6.980;2022-07-05T08:23:59;20.40;99.90
56184;DHT22;42086;53.170;6.980;2022-07-05T08:26:25;20.20;99.90
56184;DHT22;42086;53.170;6.980;2022-07-05T08:28:52;20.30;99.90
56184;DHT22;42086;53.170;6.980;2022-07-05T08:31:18;20.10;99.90
56184;DHT22;42086;53.170;6.980;2022-07-05T08:33:43;19.90;99.90
56184;DHT22;42086;53.170;6.980;2022-07-05T08:36:09;19.90;99.90
56184;DHT22;42086;53.170;6.980;2022-07-05T08:38:35;20.00;99.90
56184;DHT22;42086;53.170;6.980;2022-07-05T08:41:02;20.00;99.90
56184;DHT22;42086;53.170;6.980;2022-07-05T08:43:28;19.90;99.90
56184;DHT22;42086;53.170;6.980;2022-07-05T08:45:56;19.80;99.90
56184;DHT22;42086;53.170;6.980;2022-07-05T08:48:24;19.70;99.90
56184;DHT22;42086;53.170;6.980;2022-07-05T08:50:51;19.70;99.90
56184;DHT22;42086;53.170;6.980;2022-07-05T08:53:21;19.60;99.90
56184;DHT22;42086;53.170;6.980;2022-07-05T08:55:47;19.60;99.90
56184;DHT22;42086;53.170;6.980;2022-07-05T08:58:13;19.60;99.90
56184;DHT22;42086;53.170;6.980;2022-07-05T09:00:39;19.70;99.90
56184;DHT22;42086;53.170;6.980;2022-07-05T09:03:06;19.70;99.90
56184;DHT22;42086;53.170;6.980;2022-07-05T09:05:42;20.10;99.90
56184;DHT22;42086;53.170;6.980;2022-07-05T09:08:09;20.10;99.90
56184;DHT22;42086;53.170;6.980;2022-07-05T09:10:37;20.00;99.90
56184;DHT22;42086;53.170;6.980;2022-07-05T09:13:03;19.80;99.90
56184;DHT22;42086;53.170;6.980;2022-07-05T09:15:29;19.50;99.90
56184;DHT22;42086;53.170;6.980;2022-07-05T09:17:55;19.40;99.90
56184;DHT22;42086;53.170;6.980;2022-07-05T09:20:21;19.30;99.90
56184;DHT22;42086;53.170;6.980;2022-07-05T09:22:52;19.30;99.90
56184;DHT22;42086;53.170;6.980;2022-07-05T09:25:25;19.50;99.90
56184;DHT22;42086;53.170;6.980;2022-07-05T09:28:05;19.80;99.90
56184;DHT22;42086;53.170;6.980;2022-07-05T09:30:39;20.00;99.90
56184;DHT22;42086;53.170;6.980;2022-07-05T09:33:25;20.10;99.90
56184;DHT22;42086;53.170;6.980;2022-07-05T09:35:53;19.80;99.90
56184;DHT22;42086;53.170;6.980;2022-07-05T09:38:27;19.80;99.90
56184;DHT22;42086;53.170;6.980;2022-07-05T09:40:54;19.60;99.90
56184;DHT22;42086;53.170;6.980;2022-07-05T09:43:26;19.60;99.90
56184;DHT22;42086;53.170;6.980;2022-07-05T09:45:53;20.00;99.90
56184;DHT22;42086;53.170;6.980;2022-07-05T09:48:18;20.10;99.90
56184;DHT22;42086;53.170;6.980;2022-07-05T09:50:44;20.00;99.90
56184;DHT22;42086;53.170;6.980;2022-07-05T09:53:10;19.70;99.90
56184;DHT22;42086;53.170;6.980;2022-07-05T09:55:39;19.80;99.90
56184;DHT22;42086;53.170;6.980;2022-07-05T09:58:06;19.90;99.90
56184;DHT22;42086;53.170;6.980;2022-07-05T10:00:32;20.00;99.90
56184;DHT22;42086;53.170;6.980;2022-07-05T10:02:58;20.20;99.90
56184;DHT22;42086;53.170;6.980;2022-07-05T10:05:30;20.50;99.90
56184;DHT22;42086;53.170;6.980;2022-07-05T10:07:58;20.80;99.90
56184;DHT22;42086;53.170;6.980;2022-07-05T10:10:28;20.70;99.40
56184;DHT22;42086;53.170;6.980;2022-07-05T10:12:56;20.90;99.90
56184;DHT22;42086;53.170;6.980;2022-07-05T10:15:24;21.40;99.70
56184;DHT22;42086;53.170;6.980;2022-07-05T10:20:42;21.70;95.50
56184;DHT22;42086;53.170;6.980;2022-07-05T10:23:15;21.40;91.20
56184;DHT22;42086;53.170;6.980;2022-07-05T10:25:46;21.10;93.00
56184;DHT22;42086;53.170;6.980;2022-07-05T10:28:19;20.90;92.60
56184;DHT22;42086;53.170;6.980;2022-07-05T10:30:49;21.10;93.00
56184;DHT22;42086;53.170;6.980;2022-07-05T10:33:18;21.20;92.80
56184;DHT22;42086;53.170;6.980;2022-07-05T10:35:46;21.20;92.30
56184;DHT22;42086;53.170;6.980;2022-07-05T10:38:12;21.10;92.50
56184;DHT22;42086;53.170;6.980;2022-07-05T10:40:40;20.80;91.80
56184;DHT22;42086;53.170;6.980;2022-07-05T10:43:08;20.60;91.30
56184;DHT22;42086;53.170;6.980;2022-07-05T10:45:38;20.50;90.30
56184;DHT22;42086;53.170;6.980;2022-07-05T10:48:26;20.50;90.20
56184;DHT22;42086;53.170;6.980;2022-07-05T10:51:00;20.60;89.30
56184;DHT22;42086;53.170;6.980;2022-07-05T10:54:07;20.60;90.20
56184;DHT22;42086;53.170;6.980;2022-07-05T10:56:33;20.50;91.10
56184;DHT22;42086;53.170;6.980;2022-07-05T10:59:11;20.80;91.60
56184;DHT22;42086;53.170;6.980;2022-07-05T11:01:41;21.40;90.50
56184;DHT22;42086;53.170;6.980;2022-07-05T11:04:12;21.80;91.20
56184;DHT22;42086;53.170;6.980;2022-07-05T11:06:44;21.90;87.10
56184;DHT22;42086;53.170;6.980;2022-07-05T11:11:41;21.60;86.90
56184;DHT22;42086;53.170;6.980;2022-07-05T11:16:46;21.60;88.10
56184;DHT22;42086;53.170;6.980;2022-07-05T11:19:13;21.40;89.20
56184;DHT22;42086;53.170;6.980;2022-07-05T11:22:00;21.40;89.20
56184;DHT22;42086;53.170;6.980;2022-07-05T11:24:28;21.50;83.80
56184;DHT22;42086;53.170;6.980;2022-07-05T11:26:59;21.40;79.00
56184;DHT22;42086;53.170;6.980;2022-07-05T11:34:48;20.90;82.60
56184;DHT22;42086;53.170;6.980;2022-07-05T11:39:44;21.10;84.30
56184;DHT22;42086;53.170;6.980;2022-07-05T11:42:19;21.50;84.70
56184;DHT22;42086;53.170;6.980;2022-07-05T11:44:49;21.60;84.70
56184;DHT22;42086;53.170;6.980;2022-07-05T11:47:19;21.70;83.70
56184;DHT22;42086;53.170;6.980;2022-07-05T11:49:56;21.90;81.20
56184;DHT22;42086;53.170;6.980;2022-07-05T11:52:30;22.30;83.40
56184;DHT22;42086;53.170;6.980;2022-07-05T11:54:57;22.60;80.20
56184;DHT22;42086;53.170;6.980;2022-07-05T11:57:23;22.40;79.80
56184;DHT22;42086;53.170;6.980;2022-07-05T11:59:49;22.20;80.00
56184;DHT22;42086;53.170;6.980;2022-07-05T12:02:16;22.20;80.40
56184;DHT22;42086;53.170;6.980;2022-07-05T12:04:48;22.30;81.10
56184;DHT22;42086;53.170;6.980;2022-07-05T12:07:31;22.40;80.40
56184;DHT22;42086;53.170;6.980;2022-07-05T12:09:58;22.30;75.40
56184;DHT22;42086;53.170;6.980;2022-07-05T12:12:43;22.10;78.50
56184;DHT22;42086;53.170;6.980;2022-07-05T12:15:16;21.90;77.40
56184;DHT22;42086;53.170;6.980;2022-07-05T12:17:48;21.80;77.20
56184;DHT22;42086;53.170;6.980;2022-07-05T12:20:20;22.20;79.40
56184;DHT22;42086;53.170;6.980;2022-07-05T12:22:46;22.70;80.70
56184;DHT22;42086;53.170;6.980;2022-07-05T12:25:16;23.00;81.30
56184;DHT22;42086;53.170;6.980;2022-07-05T12:27:43;22.90;80.90
56184;DHT22;42086;53.170;6.980;2022-07-05T12:30:10;22.80;81.30
56184;DHT22;42086;53.170;6.980;2022-07-05T12:33:08;22.80;81.30
56184;DHT22;42086;53.170;6.980;2022-07-05T12:35:36;23.00;86.00
56184;DHT22;42086;53.170;6.980;2022-07-05T12:40:35;22.90;88.70
56184;DHT22;42086;53.170;6.980;2022-07-05T12:43:13;22.90;88.80
56184;DHT22;42086;53.170;6.980;2022-07-05T12:45:40;23.10;89.00
56184;DHT22;42086;53.170;6.980;2022-07-05T12:48:07;23.00;89.90
56184;DHT22;42086;53.170;6.980;2022-07-05T12:50:50;23.40;88.60
56184;DHT22;42086;53.170;6.980;2022-07-05T12:53:18;23.40;86.80
56184;DHT22;42086;53.170;6.980;2022-07-05T12:56:06;23.20;87.90
56184;DHT22;42086;53.170;6.980;2022-07-05T12:59:17;22.70;87.70
56184;DHT22;42086;53.170;6.980;2022-07-05T13:01:44;22.60;88.20
56184;DHT22;42086;53.170;6.980;2022-07-05T13:04:15;22.60;90.10
56184;DHT22;42086;53.170;6.980;2022-07-05T13:09:16;23.10;89.80
56184;DHT22;42086;53.170;6.980;2022-07-05T13:11:43;23.40;89.30
56184;DHT22;42086;53.170;6.980;2022-07-05T13:14:09;23.90;90.40
56184;DHT22;42086;53.170;6.980;2022-07-05T13:16:34;24.00;89.00
56184;DHT22;42086;53.170;6.980;2022-07-05T13:19:11;24.40;88.60
56184;DHT22;42086;53.170;6.980;2022-07-05T13:21:38;24.40;82.00
56184;DHT22;42086;53.170;6.980;2022-07-05T13:24:04;24.40;82.60
56184;DHT22;42086;53.170;6.980;2022-07-05T13:26:31;24.30;83.10
56184;DHT22;42086;53.170;6.980;2022-07-05T13:28:56;24.70;81.90
56184;DHT22;42086;53.170;6.980;2022-07-05T13:31:22;24.90;80.70
56184;DHT22;42086;53.170;6.980;2022-07-05T13:33:48;25.50;80.20
56184;DHT22;42086;53.170;6.980;2022-07-05T13:36:19;25.70;76.50
56184;DHT22;42086;53.170;6.980;2022-07-05T13:38:45;25.70;71.60
56184;DHT22;42086;53.170;6.980;2022-07-05T13:41:11;26.00;71.90
56184;DHT22;42086;53.170;6.980;2022-07-05T13:43:36;25.70;69.80
56184;DHT22;42086;53.170;6.980;2022-07-05T13:46:03;26.10;69.70
56184;DHT22;42086;53.170;6.980;2022-07-05T13:48:29;26.30;68.20
56184;DHT22;42086;53.170;6.980;2022-07-05T13:50:55;26.40;66.70
56184;DHT22;42086;53.170;6.980;2022-07-05T13:53:20;26.20;64.40
56184;DHT22;42086;53.170;6.980;2022-07-05T13:55:46;25.50;61.60
56184;DHT22;42086;53.170;6.980;2022-07-05T13:58:12;25.50;61.50
56184;DHT22;42086;53.170;6.980;2022-07-05T14:00:38;25.40;62.10
56184;DHT22;42086;53.170;6.980;2022-07-05T14:03:03;25.50;62.30
56184;DHT22;42086;53.170;6.980;2022-07-05T14:05:29;25.70;62.10
56184;DHT22;42086;53.170;6.980;2022-07-05T14:07:55;26.30;62.40
56184;DHT22;42086;53.170;6.980;2022-07-05T14:10:20;26.30;61.30
56184;DHT22;42086;53.170;6.980;2022-07-05T14:12:46;26.60;61.50
56184;DHT22;42086;53.170;6.980;2022-07-05T14:15:12;26.90;60.60
56184;DHT22;42086;53.170;6.980;2022-07-05T14:17:37;27.20;60.40
56184;DHT22;42086;53.170;6.980;2022-07-05T14:20:04;27.70;59.40
56184;DHT22;42086;53.170;6.980;2022-07-05T14:22:30;27.00;57.90
56184;DHT22;42086;53.170;6.980;2022-07-05T14:24:56;27.00;57.70
56184;DHT22;42086;53.170;6.980;2022-07-05T14:27:22;27.40;57.90
56184;DHT22;42086;53.170;6.980;2022-07-05T14:29:47;28.00;57.40
56184;DHT22;42086;53.170;6.980;2022-07-05T14:32:13;28.20;56.40
56184;DHT22;42086;53.170;6.980;2022-07-05T14:34:39;28.00;55.70
56184;DHT22;42086;53.170;6.980;2022-07-05T14:37:05;27.10;55.20
56184;DHT22;42086;53.170;6.980;2022-07-05T14:39:31;26.70;56.00
56184;DHT22;42086;53.170;6.980;2022-07-05T14:41:56;26.30;56.10
56184;DHT22;42086;53.170;6.980;2022-07-05T14:44:22;26.20;57.10
56184;DHT22;42086;53.170;6.980;2022-07-05T14:46:48;25.80;56.90
56184;DHT22;42086;53.170;6.980;2022-07-05T14:49:13;25.20;56.80
56184;DHT22;42086;53.170;6.980;2022-07-05T14:51:39;24.40;57.30
56184;DHT22;42086;53.170;6.980;2022-07-05T14:54:05;24.10;60.00
56184;DHT22;42086;53.170;6.980;2022-07-05T14:56:30;24.00;60.00
56184;DHT22;42086;53.170;6.980;2022-07-05T14:58:56;24.20;59.90
56184;DHT22;42086;53.170;6.980;2022-07-05T15:01:22;24.40;59.90
56184;DHT22;42086;53.170;6.980;2022-07-05T15:03:47;24.20;60.00
56184;DHT22;42086;53.170;6.980;2022-07-05T15:06:13;23.80;59.90
56184;DHT22;42086;53.170;6.980;2022-07-05T15:08:39;23.60;59.90
56184;DHT22;42086;53.170;6.980;2022-07-05T15:11:05;23.40;60.50
56184;DHT22;42086;53.170;6.980;2022-07-05T15:13:31;23.20;62.60
56184;DHT22;42086;53.170;6.980;2022-07-05T15:15:57;23.70;62.70
56184;DHT22;42086;53.170;6.980;2022-07-05T15:18:24;24.40;62.30
56184;DHT22;42086;53.170;6.980;2022-07-05T15:20:50;24.30;61.30
56184;DHT22;42086;53.170;6.980;2022-07-05T15:23:20;23.60;61.20
56184;DHT22;42086;53.170;6.980;2022-07-05T15:25:46;23.30;61.80
56184;DHT22;42086;53.170;6.980;2022-07-05T15:28:12;23.30;62.70
56184;DHT22;42086;53.170;6.980;2022-07-05T15:30:40;23.30;62.70
56184;DHT22;42086;53.170;6.980;2022-07-05T15:33:06;23.30;63.70
56184;DHT22;42086;53.170;6.980;2022-07-05T15:35:33;23.80;63.20
56184;DHT22;42086;53.170;6.980;2022-07-05T15:37:59;23.90;63.40
56184;DHT22;42086;53.170;6.980;2022-07-05T15:40:24;24.00;63.60
56184;DHT22;42086;53.170;6.980;2022-07-05T15:42:50;24.30;63.20
56184;DHT22;42086;53.170;6.980;2022-07-05T15:45:16;24.10;62.50
56184;DHT22;42086;53.170;6.980;2022-07-05T15:47:42;23.60;62.30
56184;DHT22;42086;53.170;6.980;2022-07-05T15:50:09;23.30;63.00
56184;DHT22;42086;53.170;6.980;2022-07-05T15:52:39;23.20;63.80
56184;DHT22;42086;53.170;6.980;2022-07-05T15:55:05;22.90;64.50
56184;DHT22;42086;53.170;6.980;2022-07-05T15:57:32;22.20;64.80
56184;DHT22;42086;53.170;6.980;2022-07-05T15:59:58;21.90;65.60